Bayfield, CO

7:59 PM MDT on September 01, 2015 (GMT -0600)
Timberdale Ranch | | Change Station
CLOSE
Current Station
Personal Weather Station
Location: Bayfield, CO
Elevation: 7690 ft
Nearby Weather Stations

Elev 7690 ft 37.30 °N, 107.65 °W | Updated 24 minutes ago

Partly Cloudy
Partly Cloudy
70.6 °F
Feels Like 77 °F
N
0.2
Wind Variable Wind from SSW
Gusts 0.2 mph

Today
High -- | Low -- °F
--% Chance of Precip.
Yesterday
High -- | Low -- °F
Precip. -- in
6:40 AM 7:39 PM
Waning Gibbous, 84% visible
Pressure 29.97 in
Visibility 10.0 miles
Clouds Clear
Heat Index 77 °F
Dew Point 43 °F
Humidity 37%
Rainfall 0.00 in
Snow Depth Not available.
UV 0 out of 12
Pollen 8.20 out of 12
Air Quality Not available.
Flu Activity Not available.
METAR KDRO 020153Z 24007KT 10SM CLR 23/06 A3020 RMK AO2 SLP147 T02330056
Pressure 29.97 in
Visibility 10.0 miles
Clouds Clear
Heat Index 77 °F
Dew Point 43 °F
Humidity 37%
Rainfall 0.00 in
Snow Depth Not available.
UV 0 out of 12
Pollen 8.20 out of 12
Air Quality Not available.
Flu Activity Not available.
METAR KDRO 020153Z 24007KT 10SM CLR 23/06 A3020 RMK AO2 SLP147 T02330056

10-Day Weather Forecast

×

Almanac

Astronomy

Sep. 01, 2015 Rise Set
Actual Time
Civil Twilight
Nautical Twilight
Astronomical Twilight
Moon
Length of Visible Light
Length of Day
Tomorrow will be .
, % of the Moon is Illuminated

Today's Extremes

State Highs State Lows

Community

WunderPhotos

Upload Photos

1,851,673 photos uploaded!

WunderBlogs® & News

Nearby

Air Quality

  Air Quality AQ Index Pollutant
Not available.

Snow Depth

Station Depth Elevation

Earthquake Activity

City Distance Mag. Time & Date
Minimum magnitude displayed is 2.5.

Coastal Water Temperatures

Place Temperature

Stations

Nearby Weather Stations

Station Location Temp. Windchill Dew Point Humidity Wind Precip. Elev Updated Type